Alford, Florida
Current Conditions -  °F | °C
As of 5:53 PM on Friday 31 Oct 2014 (Local Time) from KMAI Reporting Station
Scattered Clouds Scattered Clouds  
Wind Chill: 66°   Ceiling: Unl
Heat Index: 66°   Visibility: 10mi
Dew Point: 45°   Wind: 6mph
Humidity: 47%   Direction: 290°WNW
Pressure: 29.89"   Gusts: NA
Location:  30.69°N, 85.39°W
Report Text: KMAI 312253Z AUTO 29005KT 10SM SCT110 19/07 A2989 RMK AO2 RAE09 SLP121 P0000 T01890072 $
Loading
Personal Weather Stations






























Interactive Weather Map
Tropical Storm Tracking
New forecast layout! Learn more

10-Day Weather Forecast

Advertisements
Track Severe Weather on mobile